Latest Weather Observations for Sydney Olympic Park

IDN60801

Issued at 8:05 pm EDT Friday 31 October 2014 (issued every 30 minutes, with the page automatically refreshed every 10 minutes)

About weather observations | Map of weather stations | Latest weather observations for NSW | Other Formats
Station Details ID: 066212 Name: SYDNEY OLYMPIC PARK AWS (ARCHERY CENTRE) Lat: -33.83 Lon: 151.07 Height: 4.0 m
Data from the previous 72 hours. | See also: Recent months at Sydney Olympic Park
Date/Time
EDT
Temp
°C
App
Temp
°C
Dew
Point
Rel
Hum
%
Delta-T
°C
Wind Press
QNH
hPa
Press
MSL
hPa
Rain
since 9 am
mm
Dir
 
Spd
km/h
Gust
km/h
Spd
kts
Gust
kts
31/08:00pm 27.1 24.8 10.3 35 9.4 NE 13 20 7 11 - - 0.0
31/07:30pm 27.7 25.3 10.0 33 9.9 NE 13 26 7 14 - - 0.0
31/07:00pm 28.4 25.9 9.6 31 10.5 NE 13 26 7 14 - - 0.0
31/06:30pm 29.1 26.2 9.8 30 10.8 ENE 15 26 8 14 - - 0.0
31/06:00pm 29.4 26.6 10.0 30 10.9 NE 15 28 8 15 - - 0.0
31/05:30pm 30.4 27.1 10.9 30 11.2 NE 19 30 10 16 - - 0.0
31/05:00pm 30.6 27.7 9.5 27 11.9 NNE 15 28 8 15 - - 0.0
31/04:30pm 31.1 29.1 11.5 30 11.4 ENE 13 22 7 12 - - 0.0
31/04:00pm 31.8 28.4 9.3 25 12.7 ENE 17 30 9 16 - - 0.0
31/03:30pm 33.1 30.8 10.4 25 13.1 ENE 13 24 7 13 - - 0.0
31/03:00pm 32.6 30.0 10.6 26 12.7 ENE 15 26 8 14 - - 0.0
31/02:30pm 32.0 29.2 14.2 34 10.8 E 22 28 12 15 - - 0.0
31/02:00pm 32.5 32.1 15.1 35 10.8 ENE 11 19 6 10 - - 0.0
31/01:30pm 34.7 31.0 2.3 13 16.6 NNW 11 20 6 11 - - 0.0
31/01:00pm 32.9 31.6 11.4 27 12.6 ENE 9 15 5 8 - - 0.0
31/12:30pm 34.7 32.6 9.9 22 14.3 NNW 11 20 6 11 - - 0.0
31/12:00pm 33.4 31.1 7.4 20 14.3 NNE 9 17 5 9 - - 0.0
31/11:30am 31.8 31.3 12.1 30 11.6 NE 6 17 3 9 - - 0.0
31/11:00am 29.6 29.1 12.1 34 10.2 NW 6 11 3 6 - - 0.0
31/10:30am 27.2 27.8 13.2 42 8.2 NNW 2 11 1 6 - - 0.0
31/10:00am 25.5 25.0 12.7 45 7.4 NNW 7 13 4 7 - - 0.0
31/09:30am 24.1 24.0 13.3 51 6.3 W 6 9 3 5 - - 0.0
31/09:00am 22.7 22.1 13.5 56 5.3 NW 9 13 5 7 - - 0.0
31/08:54am 22.4 22.0 14.0 59 4.9 WNW 9 13 5 7 - - 0.0
31/08:35am 21.2 21.4 14.1 64 4.1 NW 6 7 3 4 - - 0.0
31/08:30am 20.8 20.9 14.0 65 3.9 W 6 9 3 5 - - 0.0
31/08:00am 19.1 19.1 14.1 73 2.9 WNW 7 11 4 6 - - 0.0
31/07:30am 17.4 17.1 14.5 83 1.7 WNW 9 13 5 7 - - 0.0
31/07:00am 15.5 15.8 15.0 97 0.3 WNW 7 11 4 6 - - 0.0
31/06:30am 14.1 15.3 13.8 98 0.2 CALM 0 0 0 0 - - 0.0
31/06:00am 13.7 14.8 13.4 98 0.2 SSW 0 0 0 0 - - 0.0
31/05:30am 14.1 15.3 13.8 98 0.2 CALM 0 0 0 0 - - 0.0
31/05:00am 14.3 15.6 14.0 98 0.2 CALM 0 0 0 0 - - 0.0
31/04:30am 14.3 15.6 14.0 98 0.2 CALM 0 0 0 0 - - 0.0
31/04:00am 14.5 15.8 14.2 98 0.2 CALM 0 0 0 0 - - 0.0
31/03:30am 14.8 16.2 14.5 98 0.2 CALM 0 0 0 0 - - 0.0
31/03:00am 14.9 16.3 14.4 97 0.3 CALM 0 0 0 0 - - 0.0
31/02:30am 15.2 16.7 14.6 96 0.3 CALM 0 0 0 0 - - 0.0
31/02:00am 15.5 16.9 14.5 94 0.6 CALM 0 0 0 0 - - 0.0
31/01:30am 15.8 16.2 14.8 94 0.6 SSW 6 7 3 4 - - 0.0
31/01:00am 16.0 17.5 14.7 92 0.7 CALM 0 0 0 0 - - 0.0
31/12:30am 16.1 17.5 14.5 90 0.9 CALM 0 0 0 0 - - 0.0
31/12:00am 16.5 17.8 14.2 86 1.3 SSW 0 0 0 0 - - 0.0
 
Date/Time
EDT
Temp
°C
App
Temp
°C
Dew
Point
Rel
Hum
%
Delta-T
°C
Wind Press
QNH
hPa
Press
MSL
hPa
Rain
since 9 am
mm
Dir
 
Spd
km/h
Gust
km/h
Spd
kts
Gust
kts
30/11:30pm 17.2 18.5 14.1 82 1.8 CALM 0 0 0 0 - - 0.0
30/11:00pm 18.4 19.6 13.9 75 2.6 CALM 0 0 0 0 - - 0.0
30/10:30pm 19.9 21.0 13.4 66 3.7 CALM 0 0 0 0 - - 0.0
30/10:00pm 21.6 21.1 12.5 56 5.2 NE 7 13 4 7 - - 0.0
30/09:30pm 22.0 21.0 11.1 50 6.0 ENE 7 13 4 7 - - 0.0
30/09:00pm 22.3 20.6 9.8 45 6.8 E 9 15 5 8 - - 0.0
30/08:30pm 22.7 21.3 9.5 43 7.1 E 7 11 4 6 - - 0.0
30/08:00pm 23.4 21.7 9.8 42 7.4 ENE 9 15 5 8 - - 0.0
30/07:30pm 24.4 22.4 10.3 41 7.8 ENE 11 15 6 8 - - 0.0
30/07:00pm 25.4 23.5 10.4 39 8.3 ENE 11 22 6 12 - - 0.0
30/06:30pm 26.7 24.5 10.8 37 9.0 NE 13 24 7 13 - - 0.0
30/06:00pm 28.1 26.7 10.8 34 9.8 ENE 9 17 5 9 - - 0.0
30/05:30pm 29.5 27.6 9.1 28 11.3 NE 9 17 5 9 - - 0.0
30/05:00pm 31.3 29.4 7.7 23 12.9 WNW 7 20 4 11 - - 0.0
30/04:30pm 31.2 29.2 7.0 22 13.1 NW 7 13 4 7 - - 0.0
30/04:00pm 31.7 29.7 8.7 24 12.8 W 9 17 5 9 - - 0.0
30/03:30pm 30.2 27.6 6.1 22 12.8 WNW 9 17 5 9 - - 0.0
30/03:00pm 30.6 27.8 7.1 23 12.7 W 11 22 6 12 - - 0.0
30/02:30pm 30.3 28.2 8.1 25 12.2 WNW 9 20 5 11 - - 0.0
30/02:00pm 30.2 28.1 9.7 28 11.5 WNW 11 22 6 12 - - 0.0
30/01:30pm 29.4 25.8 10.0 30 10.9 NNW 19 20 10 11 - - 0.0
30/01:00pm 28.7 25.2 7.3 26 11.5 WNW 15 22 8 12 - - 0.0
30/12:30pm 28.6 27.3 9.8 31 10.5 WSW 7 13 4 7 - - 0.0
30/12:00pm 27.4 26.0 11.0 36 9.3 WNW 9 17 5 9 - - 0.0
30/11:30am 26.6 25.1 10.7 37 8.9 W 9 19 5 10 - - 0.0
30/11:00am 25.7 25.9 14.2 49 6.8 WSW 6 11 3 6 - - 0.0
30/10:30am 23.8 23.8 15.3 59 5.1 NNW 9 13 5 7 - - 0.0
30/10:00am 23.4 23.8 16.4 64 4.3 NW 9 15 5 8 - - 0.0
30/09:30am 21.8 22.1 16.1 70 3.4 NW 9 13 5 7 - - 0.0
30/09:00am 20.4 21.2 16.4 78 2.4 WNW 7 13 4 7 - - 0.0
30/08:30am 18.7 18.9 15.8 83 1.7 NW 9 13 5 7 - - 0.0
30/08:00am 17.6 18.5 16.5 93 0.7 WNW 7 11 4 6 - - 0.0
30/07:30am 16.2 16.5 15.9 98 0.2 WNW 9 11 5 6 - - 0.0
30/07:00am 15.0 15.2 14.7 98 0.2 NW 7 9 4 5 - - 0.0
30/06:30am 13.7 14.0 13.4 98 0.2 WNW 4 7 2 4 - - 0.0
30/06:07am 13.5 14.5 13.2 98 0.2 CALM 0 0 0 0 - - 0.0
30/06:00am 13.4 14.4 13.1 98 0.2 CALM 0 0 0 0 - - 0.0
30/05:54am 13.4 14.4 13.1 98 0.2 CALM 0 0 0 0 - - 0.0
30/05:30am 13.4 14.4 13.1 98 0.2 CALM 0 0 0 0 - - 0.0
30/05:00am 14.0 15.2 13.7 98 0.2 CALM 0 0 0 0 - - 0.0
30/04:52am 14.0 15.2 13.7 98 0.2 CALM 0 0 0 0 - - 0.0
30/04:37am 13.9 15.0 13.6 98 0.2 CALM 0 0 0 0 - - 0.0
30/04:30am 14.1 15.3 13.8 98 0.2 CALM 0 0 0 0 - - 0.0
30/04:00am 14.3 15.6 14.0 98 0.2 CALM 0 0 0 0 - - 0.0
30/03:30am 14.6 16.0 14.3 98 0.2 CALM 0 0 0 0 - - 0.0
30/03:00am 14.7 16.1 14.4 98 0.2 CALM 0 0 0 0 - - 0.0
30/02:30am 15.0 16.5 14.7 98 0.2 CALM 0 0 0 0 - - 0.0
30/02:00am 15.2 16.8 14.9 98 0.2 CALM 0 0 0 0 - - 0.0
30/01:30am 15.7 17.4 15.1 96 0.3 CALM 0 0 0 0 - - 0.0
30/01:00am 16.1 17.8 15.1 94 0.6 CALM 0 0 0 0 - - 0.0
30/12:30am 16.8 18.5 15.3 91 0.9 CALM 0 2 0 1 - - 0.0
30/12:00am 17.2 17.7 15.0 87 1.3 NNE 6 9 3 5 - - 0.0
 
Date/Time
EDT
Temp
°C
App
Temp
°C
Dew
Point
Rel
Hum
%
Delta-T
°C
Wind Press
QNH
hPa
Press
MSL
hPa
Rain
since 9 am
mm
Dir
 
Spd
km/h
Gust
km/h
Spd
kts
Gust
kts
29/11:30pm 17.8 18.4 15.2 85 1.5 NE 6 11 3 6 - - 0.0
29/11:00pm 18.0 18.6 15.3 84 1.6 NNE 6 11 3 6 - - 0.0
29/10:30pm 18.3 18.7 15.4 83 1.7 NNE 7 13 4 7 - - 0.0
29/10:00pm 18.5 18.9 15.4 82 1.8 NE 7 11 4 6 - - 0.0
29/09:30pm 18.8 19.5 15.7 82 1.8 NE 6 13 3 7 - - 0.0
29/09:00pm 18.8 19.3 15.5 81 1.9 ENE 7 13 4 7 - - 0.0
29/08:30pm 19.0 19.5 15.5 80 2.1 ENE 7 15 4 8 - - 0.0
29/08:00pm 19.3 19.4 15.4 78 2.3 ENE 9 17 5 9 - - 0.0
29/07:30pm 19.5 18.8 15.4 77 2.4 E 13 22 7 12 - - 0.0
29/07:00pm 19.8 19.0 15.0 74 2.8 ENE 13 22 7 12 - - 0.0
29/06:30pm 20.1 19.0 15.3 74 2.8 E 15 26 8 14 - - 0.0
29/06:00pm 20.8 20.0 15.1 70 3.4 ENE 13 22 7 12 - - 0.0
29/05:30pm 21.2 19.7 15.3 69 3.5 E 17 24 9 13 - - 0.0
29/05:00pm 21.7 20.2 15.3 67 3.8 NE 17 24 9 13 - - 0.0
29/04:30pm 21.7 18.9 15.3 67 3.8 E 24 35 13 19 - - 0.0
29/04:00pm 22.3 20.5 15.9 67 3.9 E 20 32 11 17 - - 0.0
29/03:30pm 22.0 20.0 15.4 66 3.9 E 20 32 11 17 - - 0.0
29/03:00pm 22.5 20.8 16.3 68 3.8 E 20 32 11 17 - - 0.0
29/02:30pm 22.4 20.0 15.3 64 4.2 E 22 32 12 17 - - 0.0
29/02:00pm 22.9 21.1 16.0 65 4.2 E 20 32 11 17 - - 0.0
29/01:30pm 22.5 20.0 14.1 59 4.9 E 20 26 11 14 - - 0.0
29/01:00pm 23.3 21.7 14.0 56 5.4 ESE 15 22 8 12 - - 0.0
29/12:30pm 24.2 22.5 11.2 44 7.3 ENE 11 20 6 11 - - 0.0
29/12:00pm 23.9 22.4 10.6 43 7.4 ENE 9 15 5 8 - - 0.0
29/11:30am 23.4 21.6 10.8 45 7.0 NE 11 24 6 13 - - 0.0
29/11:00am 23.0 21.2 10.8 46 6.7 ESE 11 17 6 9 - - 0.0
29/10:30am 22.8 21.4 9.6 43 7.1 SE 7 13 4 7 - - 0.0
29/10:00am 22.0 20.1 9.2 44 6.8 S 9 17 5 9 - - 0.0
29/09:30am 21.6 19.2 8.5 43 6.9 SSW 11 15 6 8 - - 0.0
29/09:00am 20.7 18.2 8.0 44 6.6 SW 11 17 6 9 - - 0.0
29/08:30am 20.4 18.9 9.3 49 5.9 S 7 9 4 5 - - 0.0
29/08:00am 19.5 18.1 8.8 50 5.6 SE 6 11 3 6 - - 0.0
29/07:30am 18.1 17.6 10.7 62 4.0 ENE 4 7 2 4 - - 0.0
29/07:00am 15.2 15.6 12.5 84 1.5 WNW 2 6 1 3 - - 0.0
29/06:30am 12.8 13.3 11.5 92 0.7 CALM 0 0 0 0 - - 0.0
29/06:00am 12.2 12.6 11.1 93 0.6 CALM 0 0 0 0 - - 0.0
29/05:30am 12.6 12.7 10.0 84 1.3 CALM 0 2 0 1 - - 0.0
29/05:00am 12.8 13.3 11.7 93 0.6 CALM 0 0 0 0 - - 0.0
29/04:30am 12.8 13.3 11.5 92 0.7 CALM 0 0 0 0 - - 0.0
29/04:00am 12.9 13.3 11.1 89 0.9 CALM 0 6 0 3 - - 0.0
29/03:30am 13.4 13.9 11.6 89 1.0 CALM 0 0 0 0 - - 0.0
29/03:00am 13.5 13.9 11.2 86 1.2 CALM 0 0 0 0 - - 0.0
29/02:30am 14.0 14.3 11.0 82 1.6 CALM 0 0 0 0 - - 0.0
29/02:00am 14.0 13.9 10.8 81 1.7 WNW 2 9 1 5 - - 0.0
29/01:30am 15.0 15.5 11.6 80 1.8 CALM 0 0 0 0 - - 0.0
29/01:00am 16.2 15.8 11.2 72 2.7 WSW 4 9 2 5 - - 0.0
29/12:30am 15.7 14.7 10.2 70 2.9 SW 6 7 3 4 - - 0.0
29/12:00am 16.0 15.9 9.4 65 3.4 CALM 0 6 0 3 - - 0.0
 
Date/Time
EDT
Temp
°C
App
Temp
°C
Dew
Point
Rel
Hum
%
Delta-T
°C
Wind Press
QNH
hPa
Press
MSL
hPa
Rain
since 9 am
mm
Dir
 
Spd
km/h
Gust
km/h
Spd
kts
Gust
kts
28/11:30pm 16.1 14.8 9.3 64 3.5 NNE 6 7 3 4 - - 0.0
28/11:00pm 16.1 16.0 9.5 65 3.4 CALM 0 7 0 4 - - 0.0
28/10:30pm 17.2 17.1 9.4 60 4.1 CALM 0 0 0 0 - - 0.0
28/10:00pm 19.4 18.1 5.8 41 6.7 WNW 2 7 1 4 - - 0.0
28/09:30pm 20.1 17.0 5.7 39 7.1 WNW 11 15 6 8 - - 0.0
28/09:00pm 21.1 18.9 5.5 36 7.7 W 6 11 3 6 - - 0.0
28/08:30pm 22.7 19.5 5.2 32 8.7 WNW 11 20 6 11 - - 0.0

Other Formats:

Comma delimited format used in spreadsheet applications
http://www.bom.gov.au/fwo/IDN60801/IDN60801.95765.axf

JavaScript Object Notation format (JSON) in row-major order
http://www.bom.gov.au/fwo/IDN60801/IDN60801.95765.json